createdAt,value
2018-06-04T00:01:12.363Z,10.00
2018-06-04T00:03:41.926Z,10.07
2018-06-04T00:06:10.664Z,10.03
2018-06-04T00:08:39.431Z,10.93
2018-06-04T00:11:08.283Z,10.43
2018-06-04T00:13:37.044Z,10.77
2018-06-04T00:16:05.853Z,9.63
2018-06-04T00:18:34.592Z,10.13
2018-06-04T00:21:03.339Z,10.80
2018-06-04T00:23:32.072Z,8.87
2018-06-04T00:26:00.835Z,10.03
2018-06-04T00:28:29.644Z,9.43
2018-06-04T00:30:58.407Z,9.57
2018-06-04T00:33:27.567Z,10.00
2018-06-04T00:35:56.311Z,10.23
2018-06-04T00:38:25.124Z,10.27
2018-06-04T00:40:54.058Z,9.50
2018-06-04T00:43:22.906Z,10.10
2018-06-04T00:45:51.707Z,10.50
2018-06-04T00:48:20.459Z,9.87
2018-06-04T00:50:49.247Z,11.43
2018-06-04T00:53:18.023Z,9.87
2018-06-04T00:55:57.983Z,9.77
2018-06-04T00:58:26.722Z,10.07
2018-06-04T01:00:55.553Z,10.17
2018-06-04T01:03:24.323Z,10.07
2018-06-04T01:05:53.104Z,9.57
2018-06-04T01:08:21.855Z,9.67
2018-06-04T01:10:50.620Z,9.40
2018-06-04T01:13:19.363Z,9.77
2018-06-04T01:15:48.217Z,10.03
2018-06-04T01:18:16.963Z,9.93
2018-06-04T01:20:45.773Z,10.07
2018-06-04T01:23:14.520Z,9.60
2018-06-04T01:25:43.297Z,9.97
2018-06-04T01:28:12.048Z,10.27
2018-06-04T01:30:40.824Z,9.30
2018-06-04T01:33:09.565Z,9.73
2018-06-04T01:35:38.305Z,9.43
2018-06-04T01:38:07.079Z,8.80
2018-06-04T01:40:35.878Z,9.10
2018-06-04T01:43:04.623Z,9.87
2018-06-04T01:45:33.447Z,10.97
2018-06-04T01:48:02.281Z,10.90
2018-06-04T01:50:31.084Z,10.30
2018-06-04T01:52:59.831Z,10.17
2018-06-04T01:55:28.575Z,10.50
2018-06-04T01:57:57.352Z,10.67
2018-06-04T02:00:26.145Z,11.27
2018-06-04T02:02:54.871Z,11.23
2018-06-04T02:05:23.610Z,11.33
2018-06-04T02:07:52.374Z,11.43
2018-06-04T02:10:21.119Z,11.50
2018-06-04T02:12:49.930Z,12.27
2018-06-04T02:15:18.697Z,11.60
2018-06-04T02:17:47.453Z,12.33
2018-06-04T02:20:16.215Z,12.13
2018-06-04T02:22:44.972Z,12.73
2018-06-04T02:25:13.745Z,12.13
2018-06-04T02:27:42.531Z,12.83
2018-06-04T02:30:11.396Z,12.93
2018-06-04T02:32:40.163Z,13.40
2018-06-04T02:35:08.969Z,12.37
2018-06-04T02:37:37.768Z,13.10
2018-06-04T02:40:06.824Z,13.60
2018-06-04T02:42:35.556Z,13.80
2018-06-04T02:45:04.447Z,13.90
2018-06-04T02:47:34.180Z,13.83
2018-06-04T02:50:03.058Z,14.40
2018-06-04T02:52:31.879Z,13.20
2018-06-04T02:55:00.651Z,14.13
2018-06-04T02:57:35.887Z,15.07
2018-06-04T03:00:06.439Z,13.77
2018-06-04T03:02:35.147Z,14.27
2018-06-04T03:05:04.003Z,13.13
2018-06-04T03:07:32.758Z,14.60
2018-06-04T03:10:01.605Z,16.50
2018-06-04T03:12:30.981Z,17.70
2018-06-04T03:14:59.747Z,17.03
2018-06-04T03:17:28.519Z,18.33
2018-06-04T03:19:57.638Z,18.67
2018-06-04T03:22:26.622Z,18.33
2018-06-04T03:24:55.383Z,17.20
2018-06-04T03:27:24.214Z,17.77
2018-06-04T03:29:53.035Z,17.13
2018-06-04T03:32:21.783Z,18.63
2018-06-04T03:34:50.926Z,18.00
2018-06-04T03:37:19.857Z,19.47
2018-06-04T03:39:48.689Z,19.17
2018-06-04T03:42:17.531Z,17.10
2018-06-04T03:44:46.508Z,17.23
2018-06-04T03:47:15.404Z,19.17
2018-06-04T03:49:44.620Z,18.80
2018-06-04T03:52:13.392Z,20.33
2018-06-04T03:54:42.228Z,19.77
2018-06-04T03:57:11.403Z,17.70
2018-06-04T03:59:40.231Z,20.40
2018-06-04T04:02:09.013Z,18.00
2018-06-04T04:04:37.782Z,17.13
2018-06-04T04:07:06.564Z,17.17
2018-06-04T04:09:35.373Z,16.63
2018-06-04T04:12:04.213Z,16.47
2018-06-04T04:14:32.954Z,17.07
2018-06-04T04:17:01.743Z,16.17
2018-06-04T04:19:30.827Z,15.60
2018-06-04T04:21:59.650Z,16.00
2018-06-04T04:24:28.416Z,16.37
2018-06-04T04:26:57.169Z,16.23
2018-06-04T04:29:26.261Z,18.23
2018-06-04T04:31:55.036Z,21.00
2018-06-04T04:34:23.862Z,21.60
2018-06-04T04:36:52.684Z,20.07
2018-06-04T04:39:21.511Z,17.13
2018-06-04T04:41:50.282Z,17.67
2018-06-04T04:44:19.119Z,16.63
2018-06-04T04:46:47.878Z,16.70
2018-06-04T04:49:16.670Z,18.83
2018-06-04T04:51:45.471Z,20.07
2018-06-04T04:54:14.382Z,18.90
2018-06-04T04:56:43.278Z,18.50
2018-06-04T04:59:12.126Z,18.30
2018-06-04T05:01:40.858Z,21.93
2018-06-04T05:04:09.618Z,17.80
2018-06-04T05:06:38.411Z,17.57
2018-06-04T05:09:08.921Z,18.37
2018-06-04T05:11:37.708Z,16.53
2018-06-04T05:14:06.497Z,18.50
2018-06-04T05:16:35.281Z,17.93
2018-06-04T05:19:04.044Z,18.57
2018-06-04T05:21:32.825Z,18.03
2018-06-04T05:24:01.660Z,17.07
2018-06-04T05:26:30.480Z,17.73
2018-06-04T05:28:59.416Z,17.60
2018-06-04T05:31:28.251Z,16.70
2018-06-04T05:33:56.975Z,16.97
2018-06-04T05:36:25.727Z,15.47
2018-06-04T05:38:54.579Z,16.23
2018-06-04T05:41:23.329Z,17.00
2018-06-04T05:43:52.111Z,17.20
2018-06-04T05:46:20.874Z,17.10
2018-06-04T05:48:49.685Z,16.13
2018-06-04T05:51:18.462Z,17.17
2018-06-04T05:53:47.210Z,15.70
2018-06-04T05:56:15.991Z,16.53
2018-06-04T05:58:44.946Z,15.63
2018-06-04T06:01:13.912Z,16.87
2018-06-04T06:03:42.677Z,18.07
2018-06-04T06:06:11.504Z,17.87
2018-06-04T06:08:40.278Z,17.07
2018-06-04T06:11:09.067Z,17.73
2018-06-04T06:13:37.896Z,16.10
2018-06-04T06:16:06.688Z,16.80
2018-06-04T06:18:35.553Z,16.73
2018-06-04T06:21:04.315Z,16.83
2018-06-04T06:23:33.103Z,16.67
2018-06-04T06:26:01.859Z,16.37
2018-06-04T06:28:30.655Z,15.67
2018-06-04T06:30:59.488Z,13.30
2018-06-04T06:33:28.266Z,14.40
2018-06-04T06:35:57.043Z,13.33
2018-06-04T06:38:25.854Z,13.73
2018-06-04T06:40:54.659Z,12.93
2018-06-04T06:43:23.510Z,12.83
2018-06-04T06:45:52.317Z,12.23
2018-06-04T06:48:21.139Z,10.77
2018-06-04T06:50:49.900Z,9.77
2018-06-04T06:53:18.787Z,9.27
2018-06-04T06:55:47.599Z,9.37
2018-06-04T06:58:16.432Z,8.77
2018-06-04T07:00:45.213Z,8.07
2018-06-04T07:03:14.644Z,8.43
2018-06-04T07:05:43.440Z,8.93
2018-06-04T07:08:13.163Z,8.27
2018-06-04T07:10:41.930Z,8.90
2018-06-04T07:13:10.700Z,7.63
2018-06-04T07:15:39.460Z,8.23
2018-06-04T07:18:08.227Z,8.00
2018-06-04T07:20:37.520Z,8.50
2018-06-04T07:23:06.369Z,8.63
2018-06-04T07:25:35.258Z,9.07
2018-06-04T07:28:04.028Z,16.47
2018-06-04T07:30:32.976Z,9.03
2018-06-04T07:33:01.799Z,8.37
2018-06-04T07:35:30.586Z,8.63
2018-06-04T07:37:59.482Z,8.53
2018-06-04T07:40:28.246Z,8.27
2018-06-04T07:42:57.091Z,9.20
2018-06-04T07:45:25.852Z,8.63
2018-06-04T07:47:54.634Z,8.33
2018-06-04T07:50:23.459Z,8.20
2018-06-04T07:52:52.252Z,7.40
2018-06-04T07:55:21.164Z,6.67
2018-06-04T07:57:49.930Z,7.07
2018-06-04T08:00:18.740Z,7.27
2018-06-04T08:02:47.482Z,6.60
2018-06-04T08:05:16.409Z,6.30
2018-06-04T08:07:45.197Z,6.80
2018-06-04T08:10:13.945Z,6.67
2018-06-04T08:12:42.704Z,7.00
2018-06-04T08:15:11.433Z,7.07
2018-06-04T08:17:40.229Z,6.07
2018-06-04T08:20:09.040Z,6.57
2018-06-04T08:22:37.858Z,6.50
2018-06-04T08:25:06.614Z,6.87
2018-06-04T08:27:35.367Z,6.00
2018-06-04T08:30:05.178Z,5.90
2018-06-04T08:32:33.940Z,5.80
2018-06-04T08:35:02.743Z,6.87
2018-06-04T08:37:31.560Z,5.60
2018-06-04T08:40:00.328Z,5.90
2018-06-04T08:42:29.087Z,6.00
2018-06-04T08:44:57.874Z,5.03
2018-06-04T08:47:26.735Z,5.13
2018-06-04T08:49:55.530Z,5.10
2018-06-04T08:52:24.282Z,5.70
2018-06-04T08:54:53.124Z,5.43
2018-06-04T08:57:21.907Z,5.97
2018-06-04T08:59:50.682Z,4.27
2018-06-04T09:02:19.407Z,4.50
2018-06-04T09:04:48.172Z,4.40
2018-06-04T09:07:17.064Z,4.20
2018-06-04T09:09:45.814Z,3.70
2018-06-04T09:12:14.781Z,4.73
2018-06-04T09:14:43.544Z,4.37
2018-06-04T09:17:12.355Z,4.00
2018-06-04T09:19:41.141Z,4.20
2018-06-04T09:22:09.958Z,3.83
2018-06-04T09:24:38.853Z,3.37
2018-06-04T09:27:07.879Z,3.50
2018-06-04T09:29:36.667Z,3.50
2018-06-04T09:32:05.470Z,3.20
2018-06-04T09:34:34.375Z,3.23
2018-06-04T09:37:03.175Z,3.63
2018-06-04T09:39:31.895Z,3.50
2018-06-04T09:42:00.656Z,3.53
2018-06-04T09:44:29.597Z,3.37
2018-06-04T09:46:58.407Z,3.70
2018-06-04T09:49:27.179Z,3.70
2018-06-04T09:51:55.955Z,3.50
2018-06-04T09:54:24.730Z,4.10
2018-06-04T09:56:53.492Z,3.43
2018-06-04T09:59:22.294Z,3.63
2018-06-04T10:01:51.077Z,3.07
2018-06-04T10:04:19.915Z,3.40
2018-06-04T10:06:48.717Z,3.87
2018-06-04T10:09:17.514Z,3.03
2018-06-04T10:11:46.295Z,3.67
2018-06-04T10:14:15.084Z,3.33
2018-06-04T10:16:43.855Z,3.30
2018-06-04T10:19:12.640Z,3.50
2018-06-04T10:21:41.531Z,3.50
2018-06-04T10:24:10.438Z,3.20
2018-06-04T10:26:39.260Z,4.10
2018-06-04T10:29:09.047Z,3.80
2018-06-04T10:31:37.857Z,4.00
2018-06-04T10:34:06.662Z,4.23
2018-06-04T10:36:36.530Z,3.63
2018-06-04T10:39:07.534Z,4.60
2018-06-04T10:41:37.962Z,4.53
2018-06-04T10:44:06.726Z,4.37
2018-06-04T10:46:35.504Z,4.60
2018-06-04T10:49:04.282Z,4.10
2018-06-04T10:51:33.003Z,4.20
2018-06-04T10:54:01.806Z,3.87
2018-06-04T10:56:30.528Z,4.50
2018-06-04T10:59:00.323Z,4.27
2018-06-04T11:01:29.031Z,4.20
2018-06-04T11:03:57.908Z,3.80
2018-06-04T11:06:26.650Z,3.73
2018-06-04T11:08:55.703Z,4.13
2018-06-04T11:11:24.467Z,4.33
2018-06-04T11:13:53.231Z,4.03
2018-06-04T11:16:22.041Z,3.67
2018-06-04T11:18:50.919Z,3.80
2018-06-04T11:21:20.025Z,3.47
2018-06-04T11:23:48.781Z,4.10
2018-06-04T11:26:17.782Z,3.40
2018-06-04T11:28:46.573Z,3.53
2018-06-04T11:31:15.358Z,3.53
2018-06-04T11:33:44.044Z,3.57
2018-06-04T11:36:12.785Z,3.50
2018-06-04T11:38:41.684Z,3.70
2018-06-04T11:41:10.456Z,3.00
2018-06-04T11:43:39.194Z,2.93
2018-06-04T11:46:08.157Z,3.40
2018-06-04T11:48:36.896Z,3.70
2018-06-04T11:51:05.657Z,3.83
2018-06-04T11:53:41.045Z,3.30
2018-06-04T11:56:09.790Z,3.10
2018-06-04T11:58:38.548Z,3.03
2018-06-04T12:01:07.465Z,2.80
2018-06-04T12:03:36.248Z,2.80
2018-06-04T12:06:04.976Z,3.20
2018-06-04T12:08:33.835Z,2.80
